Time;durP1;ratioP1;P1;durP2;ratioP2;P2;SDS_P1;SDS_P2;PMS_P1;PMS_P2;Temp;Humidity;BMP_temperature;BMP_pressure;BME280_temperature;BME280_humidity;BME280_pressure;Samples;Min_cycle;Max_cycle;Signal;HPM_P1;HPM_P2
2023/08/18 00:01:25;;;;;;;15.23;12.65;;;;;;;18.16;100.00;101693.94;5099104;28;20031;-51
2023/08/18 00:03:50;;;;;;;13.77;12.00;;;;;;;18.14;100.00;101699.47;5096442;28;20061;-53
2023/08/18 00:06:15;;;;;;;14.82;12.10;;;;;;;18.13;100.00;101687.00;5101596;28;20028;-54
2023/08/18 00:08:42;;;;;;;16.70;11.75;;;;;;;18.11;100.00;101689.84;5100609;28;20031;-54
2023/08/18 00:11:08;;;;;;;13.07;11.63;;;;;;;18.09;100.00;101683.75;5097700;28;20024;-50
2023/08/18 00:13:33;;;;;;;13.23;11.15;;;;;;;18.05;100.00;101678.81;5102444;28;20366;-51
2023/08/18 00:15:59;;;;;;;12.60;11.30;;;;;;;18.07;100.00;101682.22;5097795;28;20028;-52
2023/08/18 00:18:24;;;;;;;14.85;11.13;;;;;;;18.03;100.00;101680.81;5098860;28;20043;-50
2023/08/18 00:20:50;;;;;;;12.50;11.18;;;;;;;18.01;100.00;101688.19;5097369;28;20466;-51
2023/08/18 00:23:15;;;;;;;12.45;10.82;;;;;;;17.98;100.00;101686.63;5098443;28;20107;-51
2023/08/18 00:25:41;;;;;;;13.25;11.00;;;;;;;17.99;100.00;101674.88;5102342;28;20099;-50
2023/08/18 00:28:06;;;;;;;13.63;10.80;;;;;;;17.98;100.00;101672.34;5103171;28;20027;-50
2023/08/18 00:30:31;;;;;;;12.20;10.93;;;;;;;17.95;100.00;101673.47;5100232;28;20404;-49
2023/08/18 00:32:57;;;;;;;12.57;10.70;;;;;;;17.91;100.00;101672.91;5103736;28;20035;-50
2023/08/18 00:35:22;;;;;;;11.63;10.38;;;;;;;17.89;100.00;101677.59;5092795;28;20028;-50
2023/08/18 00:37:48;;;;;;;17.23;9.75;;;;;;;17.88;100.00;101677.75;5102194;28;20046;-50
2023/08/18 00:40:14;;;;;;;12.40;11.07;;;;;;;17.83;100.00;101672.75;5101478;28;20031;-51
2023/08/18 00:42:39;;;;;;;11.73;10.13;;;;;;;17.80;100.00;101662.28;5099834;28;20432;-50
2023/08/18 00:45:05;;;;;;;13.85;9.95;;;;;;;17.80;100.00;101667.66;5102997;28;20084;-51
2023/08/18 00:47:30;;;;;;;11.48;10.38;;;;;;;17.79;100.00;101670.53;5100280;28;20036;-50
2023/08/18 00:49:57;;;;;;;13.15;11.25;;;;;;;17.75;100.00;101667.25;5102768;28;20040;-50
2023/08/18 00:52:24;;;;;;;11.15;9.80;;;;;;;17.75;100.00;101673.50;5103067;28;20020;-52
2023/08/18 00:54:51;;;;;;;12.07;10.13;;;;;;;17.76;100.00;101674.34;5102159;28;20142;-50
2023/08/18 00:57:17;;;;;;;12.32;10.18;;;;;;;17.73;100.00;101672.78;5103337;28;20564;-51
2023/08/18 00:59:43;;;;;;;11.18;9.77;;;;;;;17.70;100.00;101681.16;5103902;28;20134;-51
2023/08/18 01:02:09;;;;;;;11.32;10.13;;;;;;;17.69;100.00;101670.53;5103328;28;20401;-50
2023/08/18 01:04:34;;;;;;;11.52;9.88;;;;;;;17.65;100.00;101672.69;5105531;28;20024;-50
2023/08/18 01:07:00;;;;;;;10.75;9.65;;;;;;;17.65;100.00;101664.63;5097545;28;20433;-51
2023/08/18 01:09:27;;;;;;;11.57;10.43;;;;;;;17.62;100.00;101672.97;5099498;28;20024;-50
2023/08/18 01:12:06;;;;;;;11.82;10.30;;;;;;;17.61;100.00;101668.56;5102414;28;20028;-51
2023/08/18 01:14:56;;;;;;;11.15;10.05;;;;;;;17.64;100.00;101676.34;5098106;28;20031;-50
2023/08/18 01:17:35;;;;;;;12.88;10.77;;;;;;;17.60;100.00;101671.41;5097198;28;20099;-50
2023/08/18 01:20:00;;;;;;;10.90;9.88;;;;;;;17.60;100.00;101676.75;5097132;28;20024;-50
2023/08/18 01:22:26;;;;;;;12.60;10.40;;;;;;;17.58;100.00;101668.84;5103834;28;20024;-49
2023/08/18 01:24:58;;;;;;;11.43;10.32;;;;;;;17.56;100.00;101660.09;5101497;28;20023;-50
2023/08/18 01:27:24;;;;;;;12.45;10.30;;;;;;;17.55;100.00;101644.97;5101465;28;20032;-50
2023/08/18 01:29:49;;;;;;;11.60;10.38;;;;;;;17.53;100.00;101650.47;5103889;28;20023;-50
2023/08/18 01:32:16;;;;;;;11.55;10.35;;;;;;;17.54;100.00;101649.50;5099931;28;20024;-51
2023/08/18 01:34:43;;;;;;;11.10;9.98;;;;;;;17.55;100.00;101640.44;5099273;28;20441;-51
2023/08/18 01:37:09;;;;;;;10.63;9.52;;;;;;;17.57;100.00;101640.31;5101905;28;20525;-51
2023/08/18 01:39:35;;;;;;;11.38;10.18;;;;;;;17.54;100.00;101636.06;5104819;28;20469;-50
2023/08/18 01:42:02;;;;;;;10.77;9.65;;;;;;;17.53;100.00;101634.34;5101940;28;20032;-51
2023/08/18 01:44:27;;;;;;;11.25;10.02;;;;;;;17.52;100.00;101637.19;5104508;28;20024;-51
2023/08/18 01:46:53;;;;;;;11.50;10.40;;;;;;;17.49;100.00;101629.44;5102766;27;20135;-50
2023/08/18 01:49:18;;;;;;;12.18;10.50;;;;;;;17.50;100.00;101636.47;5104413;28;20023;-52
2023/08/18 01:51:43;;;;;;;11.68;10.00;;;;;;;17.50;100.00;101637.34;5099960;28;20048;-52
2023/08/18 01:54:09;;;;;;;12.10;10.35;;;;;;;17.47;100.00;101631.41;5100059;28;20103;-50
2023/08/18 01:56:34;;;;;;;10.68;9.57;;;;;;;17.49;100.00;101627.59;5100265;28;20051;-51
2023/08/18 01:58:59;;;;;;;12.48;11.18;;;;;;;17.45;100.00;101625.31;5103323;28;20082;-51
2023/08/18 02:01:25;;;;;;;12.00;10.40;;;;;;;17.45;100.00;101619.97;5099586;28;20081;-51
2023/08/18 02:03:52;;;;;;;10.75;9.65;;;;;;;17.45;100.00;101619.97;5101493;28;20028;-51
2023/08/18 02:06:18;;;;;;;13.45;10.23;;;;;;;17.44;100.00;101626.34;5102795;28;20125;-51
2023/08/18 02:08:43;;;;;;;11.65;10.63;;;;;;;17.45;100.00;101623.47;5098576;28;20508;-51
2023/08/18 02:11:09;;;;;;;11.93;10.73;;;;;;;17.45;100.00;101623.47;5099124;27;20172;-52
2023/08/18 02:13:34;;;;;;;11.93;10.73;;;;;;;17.48;100.00;101625.88;5098813;28;20024;-51
2023/08/18 02:15:59;;;;;;;12.02;10.10;;;;;;;17.48;100.00;101636.63;5100179;28;21135;-50
2023/08/18 02:18:25;;;;;;;11.57;10.38;;;;;;;17.46;100.00;101621.66;5095857;28;20055;-51
2023/08/18 02:20:58;;;;;;;13.00;10.60;;;;;;;17.46;100.00;101624.34;5102191;28;20123;-51
2023/08/18 02:23:23;;;;;;;11.30;10.30;;;;;;;17.44;100.00;101624.50;5102472;28;20030;-51
2023/08/18 02:25:49;;;;;;;11.45;10.27;;;;;;;17.43;100.00;101619.25;5096472;28;20107;-51
2023/08/18 02:28:15;;;;;;;11.85;10.60;;;;;;;17.39;100.00;101614.16;5102796;28;20028;-51
2023/08/18 02:30:40;;;;;;;11.77;10.20;;;;;;;17.39;100.00;101619.53;5099110;28;20020;-51
2023/08/18 02:33:05;;;;;;;11.77;10.57;;;;;;;17.40;100.00;101623.06;5098905;28;20039;-50
2023/08/18 02:35:31;;;;;;;11.98;10.20;;;;;;;17.38;100.00;101619.69;5100836;28;20016;-51
2023/08/18 02:37:56;;;;;;;13.77;11.00;;;;;;;17.33;100.00;101614.72;5101706;28;20046;-51
2023/08/18 02:40:21;;;;;;;12.63;11.15;;;;;;;17.30;100.00;101606.13;5095663;28;20039;-50
2023/08/18 02:42:47;;;;;;;12.70;11.40;;;;;;;17.29;100.00;101605.28;5099254;28;20035;-50
2023/08/18 02:45:12;;;;;;;12.25;11.05;;;;;;;17.26;100.00;101608.25;5101560;28;20473;-51
2023/08/18 02:47:40;;;;;;;12.73;11.43;;;;;;;17.23;100.00;101611.22;5101147;28;20109;-50
2023/08/18 02:50:06;;;;;;;11.88;10.68;;;;;;;17.22;100.00;101609.53;5102954;28;20051;-50
2023/08/18 02:52:32;;;;;;;12.75;11.30;;;;;;;17.17;100.00;101611.81;5101688;28;20030;-50
2023/08/18 02:54:57;;;;;;;12.00;10.75;;;;;;;17.14;100.00;101607.56;5101662;28;20027;-51
2023/08/18 02:57:23;;;;;;;13.40;11.73;;;;;;;17.13;100.00;101600.47;5099861;28;20481;-50
2023/08/18 02:59:48;;;;;;;13.95;11.52;;;;;;;17.12;100.00;101603.31;5098433;28;20362;-49
2023/08/18 03:02:13;;;;;;;11.85;10.65;;;;;;;17.12;100.00;101597.94;5098703;28;20032;-49
2023/08/18 03:04:39;;;;;;;12.48;11.18;;;;;;;17.13;100.00;101605.00;5096092;28;20051;-50
2023/08/18 03:07:04;;;;;;;11.95;10.75;;;;;;;17.16;100.00;101618.16;5099597;28;20104;-52
2023/08/18 03:09:30;;;;;;;14.80;11.57;;;;;;;17.15;100.00;101609.25;5102007;28;20477;-51
2023/08/18 03:11:55;;;;;;;14.75;11.63;;;;;;;17.16;100.00;101602.03;5102773;28;20042;-51
2023/08/18 03:14:20;;;;;;;12.85;11.52;;;;;;;17.16;100.00;101600.19;5096189;28;20124;-51
2023/08/18 03:16:46;;;;;;;13.00;11.60;;;;;;;17.13;100.00;101600.47;5102823;28;20020;-51
2023/08/18 03:19:11;;;;;;;13.00;11.60;;;;;;;17.11;100.00;101597.09;5103692;28;20118;-51
2023/08/18 03:21:36;;;;;;;12.80;11.55;;;;;;;17.08;100.00;101601.91;5101714;28;20082;-51
2023/08/18 03:24:03;;;;;;;13.70;12.15;;;;;;;17.09;100.00;101608.97;5102485;28;20043;-50
2023/08/18 03:26:29;;;;;;;13.43;12.02;;;;;;;17.01;100.00;101599.78;5101403;28;20026;-50
2023/08/18 03:28:56;;;;;;;14.05;12.50;;;;;;;17.03;100.00;101605.00;5101326;28;20465;-50
2023/08/18 03:31:22;;;;;;;13.48;12.02;;;;;;;17.00;100.00;101606.16;5099902;28;20020;-51
2023/08/18 03:33:47;;;;;;;14.40;11.65;;;;;;;17.03;100.00;101610.38;5095650;28;20060;-50
2023/08/18 03:36:12;;;;;;;14.75;12.82;;;;;;;17.01;100.00;101601.63;5100310;28;20019;-51
2023/08/18 03:38:38;;;;;;;15.90;12.75;;;;;;;16.97;100.00;101602.88;5098661;28;20096;-51
2023/08/18 03:41:04;;;;;;;14.43;12.82;;;;;;;16.94;100.00;101605.88;5097465;28;20485;-52
2023/08/18 03:43:31;;;;;;;15.82;14.13;;;;;;;16.91;100.00;101606.16;5098988;28;20028;-51
2023/08/18 03:46:02;;;;;;;15.40;13.80;;;;;;;16.88;100.00;101603.75;5099816;28;20462;-51
2023/08/18 03:48:28;;;;;;;15.77;13.32;;;;;;;16.86;100.00;101608.41;5096859;28;20047;-50
2023/08/18 03:50:54;;;;;;;16.13;13.75;;;;;;;16.81;100.00;101600.75;5098699;28;20486;-54
2023/08/18 03:53:23;;;;;;;15.43;13.68;;;;;;;16.78;100.00;101601.00;5099900;28;20016;-51
2023/08/18 03:55:50;;;;;;;15.32;13.85;;;;;;;16.73;100.00;101600.59;5094719;28;20036;-52
2023/08/18 03:58:16;;;;;;;15.57;13.98;;;;;;;16.75;100.00;101604.84;5102936;28;20131;-50
2023/08/18 04:00:41;;;;;;;15.53;13.93;;;;;;;16.72;100.00;101604.25;5105547;28;20110;-51
2023/08/18 04:03:08;;;;;;;16.40;14.68;;;;;;;16.71;100.00;101602.56;5102314;28;20609;-50
2023/08/18 04:05:33;;;;;;;16.85;15.07;;;;;;;16.67;100.00;101602.00;5104931;28;20101;-50
2023/08/18 04:07:58;;;;;;;15.77;14.18;;;;;;;16.72;100.00;101604.25;5105603;28;20060;-50
2023/08/18 04:10:23;;;;;;;17.53;14.80;;;;;;;16.68;100.00;101606.38;5101833;28;20054;-51
2023/08/18 04:12:49;;;;;;;18.63;14.98;;;;;;;16.65;100.00;101602.13;5102168;28;20301;-50
2023/08/18 04:15:15;;;;;;;17.70;14.40;;;;;;;16.68;100.00;101610.88;5103920;28;20020;-50
2023/08/18 04:17:40;;;;;;;18.35;14.73;;;;;;;16.63;100.00;101598.72;5099617;28;20113;-51
2023/08/18 04:20:09;;;;;;;16.17;13.82;;;;;;;16.65;100.00;101601.28;5103336;28;20031;-51
2023/08/18 04:22:34;;;;;;;17.02;15.15;;;;;;;16.65;100.00;101591.41;5100576;28;20023;-51
2023/08/18 04:25:00;;;;;;;16.35;14.05;;;;;;;16.69;100.00;101593.81;5100936;28;20477;-51
2023/08/18 04:27:25;;;;;;;17.65;15.10;;;;;;;16.69;100.00;101585.78;5099046;28;20024;-51
2023/08/18 04:29:50;;;;;;;20.52;15.27;;;;;;;16.67;100.00;101587.72;5105361;28;20474;-52
2023/08/18 04:32:16;;;;;;;15.38;13.73;;;;;;;16.65;100.00;101586.03;5101466;28;20385;-51
2023/08/18 04:34:41;;;;;;;16.85;14.95;;;;;;;16.62;100.00;101580.94;5105194;28;20031;-51
2023/08/18 04:37:06;;;;;;;18.00;15.10;;;;;;;16.63;100.00;101573.75;5102414;28;20470;-51
2023/08/18 04:39:32;;;;;;;21.58;15.90;;;;;;;16.60;100.00;101576.69;5104805;28;20019;-51
2023/08/18 04:41:57;;;;;;;21.30;15.35;;;;;;;16.62;100.00;101589.00;5105453;28;20023;-51
2023/08/18 04:44:22;;;;;;;22.17;16.10;;;;;;;16.60;100.00;101587.44;5102988;28;20023;-51
2023/08/18 04:46:48;;;;;;;20.80;15.23;;;;;;;16.57;100.00;101593.94;5103453;28;20114;-50
2023/08/18 04:49:13;;;;;;;20.15;15.65;;;;;;;16.58;100.00;101606.34;5104308;28;20370;-51
2023/08/18 04:51:39;;;;;;;20.45;15.18;;;;;;;16.57;100.00;101599.28;5105105;28;20040;-50
2023/08/18 04:54:04;;;;;;;20.40;15.63;;;;;;;16.61;100.00;101599.88;5104318;28;20028;-53
2023/08/18 04:56:30;;;;;;;20.55;16.42;;;;;;;16.61;100.00;101600.69;5104741;28;20227;-51
2023/08/18 04:58:55;;;;;;;21.47;15.63;;;;;;;16.63;100.00;101600.56;5099471;28;20024;-51
2023/08/18 05:01:21;;;;;;;23.38;15.95;;;;;;;16.62;100.00;101602.41;5099558;28;20291;-50
2023/08/18 05:03:46;;;;;;;19.73;16.25;;;;;;;16.65;100.00;101598.59;5096423;28;20149;-51
2023/08/18 05:06:13;;;;;;;18.88;15.88;;;;;;;16.64;100.00;101599.59;5099131;28;20016;-52
2023/08/18 05:08:40;;;;;;;21.35;14.60;;;;;;;16.66;100.00;101594.94;5102366;28;20035;-51
2023/08/18 05:11:10;;;;;;;20.20;15.98;;;;;;;16.63;100.00;101592.53;5096433;28;20031;-51
2023/08/18 05:13:40;;;;;;;22.13;15.73;;;;;;;16.58;100.00;101589.41;5098150;28;20039;-52
2023/08/18 05:16:05;;;;;;;18.25;15.80;;;;;;;16.60;100.00;101593.66;5096046;28;20032;-53
2023/08/18 05:18:31;;;;;;;21.33;14.52;;;;;;;16.62;100.00;101578.28;5101067;28;20027;-51
2023/08/18 05:21:01;;;;;;;20.60;15.55;;;;;;;16.63;100.00;101568.38;5098560;28;20062;-51
2023/08/18 05:23:27;;;;;;;22.02;16.00;;;;;;;16.66;100.00;101581.53;5098382;28;20492;-52
2023/08/18 05:25:56;;;;;;;21.85;15.88;;;;;;;16.64;100.00;101576.28;5098805;28;20704;-51
2023/08/18 05:28:23;;;;;;;21.58;16.13;;;;;;;16.70;100.00;101582.91;5098811;28;20032;-51
2023/08/18 05:30:49;;;;;;;19.23;15.82;;;;;;;16.71;100.00;101586.47;5103666;28;20088;-51
2023/08/18 05:33:15;;;;;;;17.88;15.38;;;;;;;16.70;100.00;101574.03;5103409;28;20024;-51
2023/08/18 05:35:41;;;;;;;20.23;16.50;;;;;;;16.71;100.00;101575.75;5098086;28;20024;-51
2023/08/18 05:38:10;;;;;;;19.00;16.08;;;;;;;16.71;100.00;101575.75;5099947;28;20021;-50
2023/08/18 05:40:41;;;;;;;21.13;16.10;;;;;;;16.72;100.00;101580.97;5095255;28;20550;-50
2023/08/18 05:43:06;;;;;;;21.27;16.58;;;;;;;16.72;100.00;101577.41;5100650;28;20051;-51
2023/08/18 05:45:35;;;;;;;20.88;16.55;;;;;;;16.70;100.00;101588.28;5103591;28;20019;-51
2023/08/18 05:48:00;;;;;;;22.30;17.60;;;;;;;16.72;100.00;101586.34;5097665;28;20107;-51
2023/08/18 05:50:27;;;;;;;21.80;16.95;;;;;;;16.69;100.00;101583.94;5092553;28;20042;-50
2023/08/18 05:52:52;;;;;;;22.23;16.67;;;;;;;16.68;100.00;101578.69;5094764;28;20076;-53
2023/08/18 05:55:18;;;;;;;20.20;16.92;;;;;;;16.72;100.00;101582.78;5102081;28;20027;-51
2023/08/18 05:57:44;;;;;;;20.98;17.02;;;;;;;16.78;100.00;101582.22;5100666;28;20028;-50
2023/08/18 06:00:12;;;;;;;21.60;16.67;;;;;;;16.79;100.00;101586.63;5102655;28;20527;-51
2023/08/18 06:02:38;;;;;;;25.40;17.75;;;;;;;16.81;100.00;101588.16;5100784;28;20074;-50
2023/08/18 06:05:04;;;;;;;21.85;17.83;;;;;;;16.81;100.00;101590.00;5096853;28;20024;-49
2023/08/18 06:07:29;;;;;;;21.30;16.88;;;;;;;16.85;100.00;101595.97;5080491;28;20067;-49
2023/08/18 06:09:54;;;;;;;20.73;17.73;;;;;;;16.86;100.00;101592.31;5097224;28;20059;-50
2023/08/18 06:12:20;;;;;;;21.27;17.48;;;;;;;16.88;100.00;101595.69;5098395;28;20110;-50
2023/08/18 06:14:45;;;;;;;21.70;18.25;;;;;;;16.87;100.00;101593.97;5094587;28;20030;-49
2023/08/18 06:17:10;;;;;;;19.50;17.10;;;;;;;16.87;100.00;101585.94;5100309;28;20028;-50
2023/08/18 06:19:36;;;;;;;21.02;17.40;;;;;;;16.83;100.00;101588.84;5097625;28;20036;-49
2023/08/18 06:22:01;;;;;;;20.38;17.40;;;;;;;16.78;100.00;101587.59;5094382;28;20034;-50
2023/08/18 06:24:26;;;;;;;21.23;17.30;;;;;;;16.83;100.00;101594.22;5093113;28;20027;-49
2023/08/18 06:26:52;;;;;;;23.17;18.80;;;;;;;16.84;100.00;101597.78;5102181;28;20031;-50
2023/08/18 06:29:17;;;;;;;23.50;17.70;;;;;;;16.83;100.00;101588.84;5097720;28;20051;-50
2023/08/18 06:31:42;;;;;;;21.30;18.35;;;;;;;16.87;100.00;101588.63;5096845;28;20481;-49
2023/08/18 06:34:07;;;;;;;22.88;18.90;;;;;;;16.86;100.00;101584.25;5099211;28;20027;-49
2023/08/18 06:36:33;;;;;;;21.83;19.33;;;;;;;16.84;100.00;101584.38;5100216;28;20473;-50
2023/08/18 06:38:59;;;;;;;22.95;19.05;;;;;;;16.81;100.00;101585.47;5102332;28;20150;-50
2023/08/18 06:41:24;;;;;;;24.25;19.75;;;;;;;16.84;100.00;101589.72;5100713;28;20477;-51
2023/08/18 06:43:49;;;;;;;21.70;18.33;;;;;;;16.85;100.00;101578.03;5097755;28;20170;-50
2023/08/18 06:46:16;;;;;;;24.50;19.73;;;;;;;16.85;100.00;101585.22;5101951;28;20027;-50
2023/08/18 06:48:41;;;;;;;22.80;20.05;;;;;;;16.88;100.00;101593.00;5100007;28;20040;-50
2023/08/18 06:51:07;;;;;;;26.80;21.13;;;;;;;16.90;100.00;101589.19;5100668;28;20034;-49
2023/08/18 06:53:32;;;;;;;25.13;21.25;;;;;;;16.91;100.00;101584.69;5098343;28;20116;-50
2023/08/18 06:55:57;;;;;;;26.70;21.70;;;;;;;16.92;100.00;101592.59;5098588;28;20048;-50
2023/08/18 06:58:22;;;;;;;26.20;20.55;;;;;;;16.93;100.00;101585.38;5097907;28;20106;-50
2023/08/18 07:00:48;;;;;;;25.30;20.50;;;;;;;16.95;100.00;101580.72;5100200;28;20055;-50
2023/08/18 07:03:13;;;;;;;26.05;21.30;;;;;;;16.97;100.00;101584.09;5095970;28;20496;-49
2023/08/18 07:05:38;;;;;;;26.48;20.85;;;;;;;16.98;100.00;101570.53;5097736;28;20035;-52
2023/08/18 07:08:04;;;;;;;24.83;21.33;;;;;;;16.99;100.00;101564.19;5095351;28;20035;-49
2023/08/18 07:10:29;;;;;;;23.80;20.20;;;;;;;17.03;100.00;101567.44;5099422;28;20023;-49
2023/08/18 07:12:54;;;;;;;25.92;20.73;;;;;;;17.06;100.00;101571.69;5094563;28;20066;-50
2023/08/18 07:15:20;;;;;;;25.23;20.77;;;;;;;17.10;100.00;101556.97;5096873;28;20047;-49
2023/08/18 07:17:45;;;;;;;26.27;20.52;;;;;;;17.10;100.00;101557.84;5097060;28;20107;-50
2023/08/18 07:20:12;;;;;;;24.30;20.83;;;;;;;17.13;100.00;101556.69;5102378;28;20426;-49
2023/08/18 07:22:38;;;;;;;23.95;21.20;;;;;;;17.14;100.00;101561.91;5095149;28;20054;-50
2023/08/18 07:25:04;;;;;;;23.67;20.50;;;;;;;17.17;100.00;101560.81;5099196;28;20024;-49
2023/08/18 07:27:30;;;;;;;26.33;21.40;;;;;;;17.22;100.00;101560.34;5099720;28;20059;-49
2023/08/18 07:29:55;;;;;;;24.58;19.73;;;;;;;17.27;100.00;101569.69;5101669;28;20048;-49
2023/08/18 07:32:20;;;;;;;22.23;19.50;;;;;;;17.32;100.00;101563.84;5093688;28;20035;-49
2023/08/18 07:34:46;;;;;;;22.92;20.05;;;;;;;17.35;100.00;101575.19;5099087;28;20032;-49
2023/08/18 07:37:11;;;;;;;23.33;19.80;;;;;;;17.32;100.00;101569.22;5103604;28;20493;-49
2023/08/18 07:39:36;;;;;;;23.85;20.48;;;;;;;17.36;100.00;101570.66;5096306;28;20032;-50
2023/08/18 07:42:02;;;;;;;23.30;20.23;;;;;;;17.33;100.00;101577.13;5100851;28;20029;-49
2023/08/18 07:44:27;;;;;;;25.38;21.35;;;;;;;17.37;100.00;101567.81;5101032;28;20028;-50
2023/08/18 07:46:52;;;;;;;27.40;21.40;;;;;;;17.42;100.00;101566.53;5101392;28;20350;-49
2023/08/18 07:49:18;;;;;;;25.08;21.52;;;;;;;17.51;100.00;101566.50;5104186;28;20012;-50
2023/08/18 07:51:43;;;;;;;24.63;20.83;;;;;;;17.58;100.00;101569.47;5100378;28;20036;-51
2023/08/18 07:54:09;;;;;;;23.77;20.25;;;;;;;17.63;100.00;101571.72;5100693;28;20047;-50
2023/08/18 07:56:34;;;;;;;22.77;19.55;;;;;;;17.68;100.00;101574.81;5106551;28;20020;-50
2023/08/18 07:59:00;;;;;;;22.60;19.85;;;;;;;17.77;100.00;101582.00;5098611;28;20111;-50
2023/08/18 08:01:27;;;;;;;24.23;21.10;;;;;;;17.84;100.00;101593.84;5104643;28;20016;-50
2023/08/18 08:03:52;;;;;;;22.75;20.23;;;;;;;17.91;100.00;101588.75;5096979;28;20027;-50
2023/08/18 08:06:18;;;;;;;26.30;21.80;;;;;;;17.92;100.00;101582.41;5097019;28;20020;-50
2023/08/18 08:08:43;;;;;;;25.85;21.10;;;;;;;17.96;100.00;101581.09;5098692;28;20606;-49
2023/08/18 08:11:09;;;;;;;26.48;21.70;;;;;;;17.96;100.00;101588.31;5096747;28;20457;-50
2023/08/18 08:13:34;;;;;;;27.42;22.50;;;;;;;17.97;100.00;101588.19;5095216;28;20122;-50
2023/08/18 08:16:00;;;;;;;25.63;21.77;;;;;;;18.01;100.00;101584.19;5095217;28;20069;-50
2023/08/18 08:18:25;;;;;;;26.25;22.25;;;;;;;18.01;100.00;101588.72;5098689;28;20024;-49
2023/08/18 08:20:51;;;;;;;25.77;21.60;;;;;;;18.06;100.00;101589.13;5093723;28;20546;-49
2023/08/18 08:23:16;;;;;;;26.65;22.73;;;;;;;18.07;100.00;101585.47;5097728;28;20069;-48
2023/08/18 08:25:42;;;;;;;26.83;22.33;;;;;;;18.09;100.00;101596.91;5100061;28;20024;-50
2023/08/18 08:28:07;;;;;;;28.25;22.65;;;;;;;18.04;100.00;101594.66;5102268;28;20024;-49
2023/08/18 08:30:32;;;;;;;25.58;22.77;;;;;;;18.07;100.00;101593.53;5100543;28;20032;-50
2023/08/18 08:32:58;;;;;;;27.38;22.10;;;;;;;18.06;100.00;101595.34;5096629;28;20474;-49
2023/08/18 08:35:23;;;;;;;26.13;21.42;;;;;;;18.10;100.00;101596.75;5099625;28;20461;-50
2023/08/18 08:37:48;;;;;;;24.40;21.48;;;;;;;18.15;100.00;101601.66;5096676;28;20036;-50
2023/08/18 08:40:19;;;;;;;25.90;22.08;;;;;;;18.16;100.00;101614.13;5102627;28;20489;-49
2023/08/18 08:42:46;;;;;;;26.55;21.85;;;;;;;18.16;100.00;101613.28;5091301;28;20065;-51
2023/08/18 08:45:11;;;;;;;23.08;20.45;;;;;;;18.14;100.00;101609.91;5096844;28;20065;-49
2023/08/18 08:47:38;;;;;;;24.85;21.55;;;;;;;18.21;100.00;101613.69;5100626;28;20059;-49
2023/08/18 08:50:05;;;;;;;23.80;20.38;;;;;;;18.21;100.00;101611.00;5100126;28;20038;-49
2023/08/18 08:52:36;;;;;;;22.48;18.70;;;;;;;18.26;100.00;101604.16;5102085;28;20065;-50
2023/08/18 08:55:03;;;;;;;22.30;19.85;;;;;;;18.27;100.00;101611.25;5099031;28;20059;-50
2023/08/18 08:57:28;;;;;;;21.23;18.75;;;;;;;18.31;100.00;101606.41;5100400;28;20024;-50
2023/08/18 08:59:54;;;;;;;23.15;19.27;;;;;;;18.34;100.00;101611.50;5102936;28;20055;-49
2023/08/18 09:02:20;;;;;;;24.33;19.08;;;;;;;18.38;100.00;101610.19;5102529;28;20024;-50
2023/08/18 09:04:46;;;;;;;21.75;19.45;;;;;;;18.39;100.00;101619.94;5102740;28;20044;-50
2023/08/18 09:07:14;;;;;;;21.25;18.90;;;;;;;18.41;100.00;101617.13;5102741;28;20027;-50
2023/08/18 09:09:40;;;;;;;20.88;17.95;;;;;;;18.48;100.00;101620.88;5102602;28;20085;-50
2023/08/18 09:12:07;;;;;;;22.38;19.50;;;;;;;18.49;100.00;101620.75;5102201;28;20046;-49
2023/08/18 09:14:38;;;;;;;21.48;18.17;;;;;;;18.55;100.00;101618.44;5100178;28;20094;-50
2023/08/18 09:17:03;;;;;;;21.92;19.42;;;;;;;18.55;100.00;101611.25;5100550;28;20596;-51
2023/08/18 09:19:30;;;;;;;23.63;18.67;;;;;;;18.58;100.00;101613.59;5099292;28;20103;-50
2023/08/18 09:22:00;;;;;;;21.45;18.63;;;;;;;18.58;100.00;101618.13;5102896;28;20023;-50
2023/08/18 09:24:29;;;;;;;23.60;19.88;;;;;;;18.60;100.00;101610.75;5100340;28;20076;-49
2023/08/18 09:26:54;;;;;;;21.20;18.98;;;;;;;18.63;100.00;101600.53;5100932;28;21036;-49
2023/08/18 09:29:20;;;;;;;21.80;19.50;;;;;;;18.67;100.00;101593.88;5104304;28;20035;-50
2023/08/18 09:31:46;;;;;;;21.50;19.27;;;;;;;18.82;100.00;101590.66;5101952;28;20070;-48
2023/08/18 09:34:21;;;;;;;23.20;19.77;;;;;;;18.89;100.00;101597.13;5096528;28;20075;-50
2023/08/18 09:36:56;;;;;;;23.17;20.25;;;;;;;18.97;100.00;101601.75;5098707;28;20058;-49
2023/08/18 09:39:25;;;;;;;23.17;20.33;;;;;;;18.98;100.00;101596.19;5082490;28;20025;-50
2023/08/18 09:41:51;;;;;;;22.67;19.92;;;;;;;18.98;100.00;101601.59;5093625;28;20016;-49
2023/08/18 09:44:17;;;;;;;22.90;20.02;;;;;;;19.08;100.00;101598.81;5101044;28;20047;-50
2023/08/18 09:46:48;;;;;;;23.73;21.23;;;;;;;19.11;100.00;101595.81;5093412;28;20477;-52
2023/08/18 09:49:17;;;;;;;24.02;21.35;;;;;;;19.07;100.00;101599.84;5097690;28;20081;-50
2023/08/18 09:51:44;;;;;;;24.23;21.45;;;;;;;19.15;100.00;101597.22;5092948;28;20493;-50
2023/08/18 09:54:11;;;;;;;23.92;21.42;;;;;;;19.19;100.00;101593.19;5101503;28;20016;-49
2023/08/18 09:56:39;;;;;;;24.20;21.13;;;;;;;19.21;100.00;101593.88;5097786;28;20445;-50
2023/08/18 09:59:25;;;;;;;26.00;22.05;;;;;;;19.29;100.00;101587.72;5099186;28;20035;-50
2023/08/18 10:01:52;;;;;;;23.38;20.90;;;;;;;19.39;100.00;101585.75;5098627;28;20032;-49
2023/08/18 10:04:23;;;;;;;23.08;20.65;;;;;;;19.52;100.00;101584.53;5097752;28;20030;-49
2023/08/18 10:06:50;;;;;;;25.17;22.48;;;;;;;19.59;100.00;101590.97;5096834;28;20065;-49
2023/08/18 10:09:16;;;;;;;26.90;23.33;;;;;;;19.59;100.00;101591.78;5093483;28;20031;-50
2023/08/18 10:11:42;;;;;;;27.90;23.92;;;;;;;19.61;100.00;101588.94;5097491;28;20089;-50
2023/08/18 10:14:08;;;;;;;26.40;23.67;;;;;;;19.64;100.00;101585.94;5098196;28;20366;-50
2023/08/18 10:16:35;;;;;;;25.27;22.45;;;;;;;19.72;100.00;101577.91;5095404;28;20070;-50
2023/08/18 10:19:00;;;;;;;26.95;23.40;;;;;;;19.79;100.00;101570.06;5102149;28;20497;-50
2023/08/18 10:21:26;;;;;;;28.80;24.75;;;;;;;19.88;100.00;101573.63;5095845;28;20016;-49
2023/08/18 10:23:53;;;;;;;29.08;25.88;;;;;;;19.91;100.00;101576.84;5097716;28;20059;-50
2023/08/18 10:26:18;;;;;;;27.98;24.77;;;;;;;20.00;100.00;101564.25;5100892;28;20728;-50
2023/08/18 10:28:44;;;;;;;35.33;28.75;;;;;;;20.11;100.00;101563.13;5097354;28;20039;-50
2023/08/18 10:31:11;;;;;;;32.47;29.05;;;;;;;20.08;99.63;101550.78;5100846;28;20027;-50
2023/08/18 10:33:44;;;;;;;34.30;30.58;;;;;;;20.17;100.00;101553.50;5101048;28;20036;-50
2023/08/18 10:36:16;;;;;;;32.17;28.77;;;;;;;20.29;99.58;101560.31;5098287;28;20031;-50
2023/08/18 10:38:41;;;;;;;32.28;27.05;;;;;;;20.42;100.00;101563.38;5103704;28;20123;-51
2023/08/18 10:41:06;;;;;;;30.08;26.88;;;;;;;20.51;98.49;101556.97;5100938;28;20111;-51
2023/08/18 10:43:42;;;;;;;29.42;26.35;;;;;;;20.61;98.85;101551.44;5099699;28;20020;-50
2023/08/18 10:46:12;;;;;;;30.10;27.05;;;;;;;20.70;97.67;101555.88;5094855;28;20036;-50
2023/08/18 10:48:37;;;;;;;27.67;24.90;;;;;;;20.86;97.29;101557.72;5094651;28;20051;-53
2023/08/18 10:51:02;;;;;;;27.05;24.25;;;;;;;20.97;96.11;101551.16;5092531;28;20032;-51
2023/08/18 10:53:37;;;;;;;26.88;23.98;;;;;;;21.03;95.71;101541.53;5096164;28;20107;-51
2023/08/18 10:56:04;;;;;;;27.77;24.58;;;;;;;21.05;94.76;101543.06;5100780;28;20048;-51
2023/08/18 10:58:30;;;;;;;27.45;24.75;;;;;;;21.11;94.24;101538.81;5103036;28;20033;-54